Keego Harbor, Michigan
Current Conditions -  °F | °C
As of 11:53 PM on Monday 26 Jan 2015 (Local Time) from KPTK Reporting Station
Clear Clear  
Wind Chill: 10°   Ceiling: Unl
Heat Index: 10°   Visibility: 8mi
Dew Point:   Wind: 3mph
Humidity: 87%   Direction: 20°NNE
Pressure: 29.95"   Gusts: NA
Location:  42.61°N, 83.34°W
Report Text: KPTK 270453Z 02003KT 8SM CLR M12/M14 A2995 RMK AO2 SLP159 LAST AUGMENTED OBS NEXT 11Z T11221139 410391144
Loading
Personal Weather Stations






























Interactive Weather Map New forecast layout! Learn more

10-Day Weather Forecast

Advertisements
Track Severe Weather on mobile